sensor_id;sensor_type;location;lat;lon;timestamp;P1;durP1;ratioP1;P2;durP2;ratioP2
10096;SDS011;5087;42.662;23.466;2023-05-29T00:00:27;0.00;;;0.00;;
10096;SDS011;5087;42.662;23.466;2023-05-29T00:02:54;0.00;;;0.00;;
10096;SDS011;5087;42.662;23.466;2023-05-29T00:05:21;0.00;;;0.00;;
10096;SDS011;5087;42.662;23.466;2023-05-29T00:07:50;0.00;;;0.00;;
10096;SDS011;5087;42.662;23.466;2023-05-29T00:10:17;0.00;;;0.00;;
10096;SDS011;5087;42.662;23.466;2023-05-29T00:12:44;0.00;;;0.00;;
10096;SDS011;5087;42.662;23.466;2023-05-29T00:15:11;0.00;;;0.00;;
10096;SDS011;5087;42.662;23.466;2023-05-29T00:17:38;0.00;;;0.00;;
10096;SDS011;5087;42.662;23.466;2023-05-29T00:20:09;0.00;;;0.00;;
10096;SDS011;5087;42.662;23.466;2023-05-29T00:22:40;0.00;;;0.00;;
10096;SDS011;5087;42.662;23.466;2023-05-29T00:25:09;0.10;;;0.10;;
10096;SDS011;5087;42.662;23.466;2023-05-29T00:27:36;0.00;;;0.00;;
10096;SDS011;5087;42.662;23.466;2023-05-29T00:30:04;0.00;;;0.00;;
10096;SDS011;5087;42.662;23.466;2023-05-29T00:32:32;0.00;;;0.00;;
10096;SDS011;5087;42.662;23.466;2023-05-29T00:34:59;0.00;;;0.00;;
10096;SDS011;5087;42.662;23.466;2023-05-29T00:37:26;0.00;;;0.00;;
10096;SDS011;5087;42.662;23.466;2023-05-29T00:39:53;1.60;;;0.20;;
10096;SDS011;5087;42.662;23.466;2023-05-29T00:42:22;0.00;;;0.00;;
10096;SDS011;5087;42.662;23.466;2023-05-29T00:44:49;0.77;;;0.77;;
10096;SDS011;5087;42.662;23.466;2023-05-29T00:47:17;0.00;;;0.00;;
10096;SDS011;5087;42.662;23.466;2023-05-29T00:49:44;0.00;;;0.00;;
10096;SDS011;5087;42.662;23.466;2023-05-29T00:52:11;0.20;;;0.20;;
10096;SDS011;5087;42.662;23.466;2023-05-29T00:54:43;0.00;;;0.00;;
10096;SDS011;5087;42.662;23.466;2023-05-29T00:57:15;0.00;;;0.00;;
10096;SDS011;5087;42.662;23.466;2023-05-29T00:59:47;0.00;;;0.00;;
10096;SDS011;5087;42.662;23.466;2023-05-29T01:02:14;0.00;;;0.00;;
10096;SDS011;5087;42.662;23.466;2023-05-29T01:04:43;0.00;;;0.00;;
10096;SDS011;5087;42.662;23.466;2023-05-29T01:07:12;0.00;;;0.00;;
10096;SDS011;5087;42.662;23.466;2023-05-29T01:09:42;0.00;;;0.00;;
10096;SDS011;5087;42.662;23.466;2023-05-29T01:12:14;0.10;;;0.10;;
10096;SDS011;5087;42.662;23.466;2023-05-29T01:14:54;0.03;;;0.03;;
10096;SDS011;5087;42.662;23.466;2023-05-29T01:17:33;0.00;;;0.00;;
10096;SDS011;5087;42.662;23.466;2023-05-29T01:20:11;0.20;;;0.20;;
10096;SDS011;5087;42.662;23.466;2023-05-29T01:23:02;0.00;;;0.00;;
10096;SDS011;5087;42.662;23.466;2023-05-29T01:25:46;0.00;;;0.00;;
10096;SDS011;5087;42.662;23.466;2023-05-29T01:28:25;0.00;;;0.00;;
10096;SDS011;5087;42.662;23.466;2023-05-29T01:30:59;0.10;;;0.10;;
10096;SDS011;5087;42.662;23.466;2023-05-29T01:33:29;0.00;;;0.00;;
10096;SDS011;5087;42.662;23.466;2023-05-29T01:35:56;0.00;;;0.00;;
10096;SDS011;5087;42.662;23.466;2023-05-29T01:38:23;0.00;;;0.00;;
10096;SDS011;5087;42.662;23.466;2023-05-29T01:40:51;0.00;;;0.00;;
10096;SDS011;5087;42.662;23.466;2023-05-29T01:43:18;0.00;;;0.00;;
10096;SDS011;5087;42.662;23.466;2023-05-29T01:45:49;0.00;;;0.00;;
10096;SDS011;5087;42.662;23.466;2023-05-29T01:48:17;0.00;;;0.00;;
10096;SDS011;5087;42.662;23.466;2023-05-29T01:50:45;0.00;;;0.00;;
10096;SDS011;5087;42.662;23.466;2023-05-29T01:53:14;0.00;;;0.00;;
10096;SDS011;5087;42.662;23.466;2023-05-29T01:55:41;0.23;;;0.23;;
10096;SDS011;5087;42.662;23.466;2023-05-29T01:58:09;0.00;;;0.00;;
10096;SDS011;5087;42.662;23.466;2023-05-29T02:00:40;0.00;;;0.00;;
10096;SDS011;5087;42.662;23.466;2023-05-29T02:03:09;0.00;;;0.00;;
10096;SDS011;5087;42.662;23.466;2023-05-29T02:05:36;0.00;;;0.00;;
10096;SDS011;5087;42.662;23.466;2023-05-29T02:08:03;0.00;;;0.00;;
10096;SDS011;5087;42.662;23.466;2023-05-29T02:10:31;0.13;;;0.13;;
10096;SDS011;5087;42.662;23.466;2023-05-29T02:12:58;0.00;;;0.00;;
10096;SDS011;5087;42.662;23.466;2023-05-29T02:15:26;0.00;;;0.00;;
10096;SDS011;5087;42.662;23.466;2023-05-29T02:17:55;0.00;;;0.00;;
10096;SDS011;5087;42.662;23.466;2023-05-29T02:20:24;0.00;;;0.00;;
10096;SDS011;5087;42.662;23.466;2023-05-29T02:22:51;0.00;;;0.00;;
10096;SDS011;5087;42.662;23.466;2023-05-29T02:25:18;0.00;;;0.00;;
10096;SDS011;5087;42.662;23.466;2023-05-29T02:27:46;0.00;;;0.00;;
10096;SDS011;5087;42.662;23.466;2023-05-29T02:30:13;0.00;;;0.00;;
10096;SDS011;5087;42.662;23.466;2023-05-29T02:32:41;0.00;;;0.00;;
10096;SDS011;5087;42.662;23.466;2023-05-29T02:35:08;0.00;;;0.00;;
10096;SDS011;5087;42.662;23.466;2023-05-29T02:37:36;0.00;;;0.00;;
10096;SDS011;5087;42.662;23.466;2023-05-29T02:40:07;0.00;;;0.00;;
10096;SDS011;5087;42.662;23.466;2023-05-29T02:42:37;0.00;;;0.00;;
10096;SDS011;5087;42.662;23.466;2023-05-29T02:45:05;0.00;;;0.00;;
10096;SDS011;5087;42.662;23.466;2023-05-29T02:47:33;0.00;;;0.00;;
10096;SDS011;5087;42.662;23.466;2023-05-29T02:50:00;0.00;;;0.00;;
10096;SDS011;5087;42.662;23.466;2023-05-29T02:52:27;0.00;;;0.00;;
10096;SDS011;5087;42.662;23.466;2023-05-29T02:54:57;0.00;;;0.00;;
10096;SDS011;5087;42.662;23.466;2023-05-29T02:57:25;0.00;;;0.00;;
10096;SDS011;5087;42.662;23.466;2023-05-29T02:59:52;0.00;;;0.00;;
10096;SDS011;5087;42.662;23.466;2023-05-29T03:02:20;0.00;;;0.00;;
10096;SDS011;5087;42.662;23.466;2023-05-29T03:04:47;0.00;;;0.00;;
10096;SDS011;5087;42.662;23.466;2023-05-29T03:07:16;0.00;;;0.00;;
10096;SDS011;5087;42.662;23.466;2023-05-29T03:09:43;0.00;;;0.00;;
10096;SDS011;5087;42.662;23.466;2023-05-29T03:12:15;0.00;;;0.00;;
10096;SDS011;5087;42.662;23.466;2023-05-29T03:14:44;0.00;;;0.00;;
10096;SDS011;5087;42.662;23.466;2023-05-29T03:17:15;0.00;;;0.00;;
10096;SDS011;5087;42.662;23.466;2023-05-29T03:19:42;1.83;;;1.70;;
10096;SDS011;5087;42.662;23.466;2023-05-29T03:22:09;0.27;;;0.27;;
10096;SDS011;5087;42.662;23.466;2023-05-29T03:24:38;0.00;;;0.00;;
10096;SDS011;5087;42.662;23.466;2023-05-29T03:27:05;0.00;;;0.00;;
10096;SDS011;5087;42.662;23.466;2023-05-29T03:29:35;0.00;;;0.00;;
10096;SDS011;5087;42.662;23.466;2023-05-29T03:32:03;0.00;;;0.00;;
10096;SDS011;5087;42.662;23.466;2023-05-29T03:34:32;0.00;;;0.00;;
10096;SDS011;5087;42.662;23.466;2023-05-29T03:37:02;0.00;;;0.00;;
10096;SDS011;5087;42.662;23.466;2023-05-29T03:39:31;0.00;;;0.00;;
10096;SDS011;5087;42.662;23.466;2023-05-29T03:41:58;0.00;;;0.00;;
10096;SDS011;5087;42.662;23.466;2023-05-29T03:44:26;0.00;;;0.00;;
10096;SDS011;5087;42.662;23.466;2023-05-29T03:46:55;0.00;;;0.00;;
10096;SDS011;5087;42.662;23.466;2023-05-29T03:49:23;0.00;;;0.00;;
10096;SDS011;5087;42.662;23.466;2023-05-29T03:51:50;0.10;;;0.10;;
10096;SDS011;5087;42.662;23.466;2023-05-29T03:54:18;0.00;;;0.00;;
10096;SDS011;5087;42.662;23.466;2023-05-29T03:56:46;0.00;;;0.00;;
10096;SDS011;5087;42.662;23.466;2023-05-29T03:59:15;0.00;;;0.00;;
10096;SDS011;5087;42.662;23.466;2023-05-29T04:01:45;0.00;;;0.00;;
10096;SDS011;5087;42.662;23.466;2023-05-29T04:04:15;0.00;;;0.00;;
10096;SDS011;5087;42.662;23.466;2023-05-29T04:06:43;0.00;;;0.00;;
10096;SDS011;5087;42.662;23.466;2023-05-29T04:09:11;0.00;;;0.00;;
10096;SDS011;5087;42.662;23.466;2023-05-29T04:11:42;0.00;;;0.00;;
10096;SDS011;5087;42.662;23.466;2023-05-29T04:14:19;0.00;;;0.00;;
10096;SDS011;5087;42.662;23.466;2023-05-29T04:16:46;0.00;;;0.00;;
10096;SDS011;5087;42.662;23.466;2023-05-29T04:19:16;0.00;;;0.00;;
10096;SDS011;5087;42.662;23.466;2023-05-29T04:21:44;0.00;;;0.00;;
10096;SDS011;5087;42.662;23.466;2023-05-29T04:24:15;0.00;;;0.00;;
10096;SDS011;5087;42.662;23.466;2023-05-29T04:26:42;0.00;;;0.00;;
10096;SDS011;5087;42.662;23.466;2023-05-29T04:29:09;0.00;;;0.00;;
10096;SDS011;5087;42.662;23.466;2023-05-29T04:31:44;0.00;;;0.00;;
10096;SDS011;5087;42.662;23.466;2023-05-29T04:34:13;0.00;;;0.00;;
10096;SDS011;5087;42.662;23.466;2023-05-29T04:36:44;0.00;;;0.00;;
10096;SDS011;5087;42.662;23.466;2023-05-29T04:39:15;0.00;;;0.00;;
10096;SDS011;5087;42.662;23.466;2023-05-29T04:41:43;0.00;;;0.00;;
10096;SDS011;5087;42.662;23.466;2023-05-29T04:44:14;0.00;;;0.00;;
10096;SDS011;5087;42.662;23.466;2023-05-29T04:46:48;0.00;;;0.00;;
10096;SDS011;5087;42.662;23.466;2023-05-29T04:49:17;0.00;;;0.00;;
10096;SDS011;5087;42.662;23.466;2023-05-29T04:51:47;0.00;;;0.00;;
10096;SDS011;5087;42.662;23.466;2023-05-29T04:54:21;0.00;;;0.00;;
10096;SDS011;5087;42.662;23.466;2023-05-29T04:56:52;0.10;;;0.10;;
10096;SDS011;5087;42.662;23.466;2023-05-29T04:59:23;0.10;;;0.10;;
10096;SDS011;5087;42.662;23.466;2023-05-29T05:01:51;0.20;;;0.20;;
10096;SDS011;5087;42.662;23.466;2023-05-29T05:04:18;0.30;;;0.30;;
10096;SDS011;5087;42.662;23.466;2023-05-29T05:06:47;0.20;;;0.20;;
10096;SDS011;5087;42.662;23.466;2023-05-29T05:09:15;0.10;;;0.10;;
10096;SDS011;5087;42.662;23.466;2023-05-29T05:11:42;0.10;;;0.10;;
10096;SDS011;5087;42.662;23.466;2023-05-29T05:14:10;0.10;;;0.10;;
10096;SDS011;5087;42.662;23.466;2023-05-29T05:16:40;0.00;;;0.00;;
10096;SDS011;5087;42.662;23.466;2023-05-29T05:19:09;0.10;;;0.10;;
10096;SDS011;5087;42.662;23.466;2023-05-29T05:21:39;0.10;;;0.10;;
10096;SDS011;5087;42.662;23.466;2023-05-29T05:24:08;0.57;;;0.57;;
10096;SDS011;5087;42.662;23.466;2023-05-29T05:26:39;0.30;;;0.30;;
10096;SDS011;5087;42.662;23.466;2023-05-29T05:29:06;0.30;;;0.30;;
10096;SDS011;5087;42.662;23.466;2023-05-29T05:31:36;0.30;;;0.30;;
10096;SDS011;5087;42.662;23.466;2023-05-29T05:34:04;0.27;;;0.27;;
10096;SDS011;5087;42.662;23.466;2023-05-29T05:36:31;0.20;;;0.20;;
10096;SDS011;5087;42.662;23.466;2023-05-29T05:39:07;0.20;;;0.20;;
10096;SDS011;5087;42.662;23.466;2023-05-29T05:41:36;0.10;;;0.10;;
10096;SDS011;5087;42.662;23.466;2023-05-29T05:44:04;0.00;;;0.00;;
10096;SDS011;5087;42.662;23.466;2023-05-29T05:46:40;0.10;;;0.10;;
10096;SDS011;5087;42.662;23.466;2023-05-29T05:49:07;0.00;;;0.00;;
10096;SDS011;5087;42.662;23.466;2023-05-29T05:51:35;0.00;;;0.00;;
10096;SDS011;5087;42.662;23.466;2023-05-29T05:54:03;0.40;;;0.40;;
10096;SDS011;5087;42.662;23.466;2023-05-29T05:56:32;0.10;;;0.10;;
10096;SDS011;5087;42.662;23.466;2023-05-29T05:58:59;0.00;;;0.00;;
10096;SDS011;5087;42.662;23.466;2023-05-29T06:01:27;0.00;;;0.00;;
10096;SDS011;5087;42.662;23.466;2023-05-29T06:03:54;0.17;;;0.17;;
10096;SDS011;5087;42.662;23.466;2023-05-29T06:06:22;0.37;;;0.37;;
10096;SDS011;5087;42.662;23.466;2023-05-29T06:08:49;1.03;;;1.03;;
10096;SDS011;5087;42.662;23.466;2023-05-29T06:11:17;0.40;;;0.40;;
10096;SDS011;5087;42.662;23.466;2023-05-29T06:13:46;0.20;;;0.20;;
10096;SDS011;5087;42.662;23.466;2023-05-29T06:16:27;0.20;;;0.20;;
10096;SDS011;5087;42.662;23.466;2023-05-29T06:18:56;0.20;;;0.20;;
10096;SDS011;5087;42.662;23.466;2023-05-29T06:21:24;0.20;;;0.20;;
10096;SDS011;5087;42.662;23.466;2023-05-29T06:23:53;0.20;;;0.20;;
10096;SDS011;5087;42.662;23.466;2023-05-29T06:26:21;0.20;;;0.20;;
10096;SDS011;5087;42.662;23.466;2023-05-29T06:28:51;0.30;;;0.30;;
10096;SDS011;5087;42.662;23.466;2023-05-29T06:31:19;0.30;;;0.30;;
10096;SDS011;5087;42.662;23.466;2023-05-29T06:33:46;0.40;;;0.40;;
10096;SDS011;5087;42.662;23.466;2023-05-29T06:36:14;0.50;;;0.50;;
10096;SDS011;5087;42.662;23.466;2023-05-29T06:38:45;0.40;;;0.40;;
10096;SDS011;5087;42.662;23.466;2023-05-29T06:41:14;0.40;;;0.40;;
10096;SDS011;5087;42.662;23.466;2023-05-29T06:43:45;0.43;;;0.43;;
10096;SDS011;5087;42.662;23.466;2023-05-29T06:46:17;0.60;;;0.60;;
10096;SDS011;5087;42.662;23.466;2023-05-29T06:48:45;0.80;;;0.80;;
10096;SDS011;5087;42.662;23.466;2023-05-29T06:51:17;0.70;;;0.70;;
10096;SDS011;5087;42.662;23.466;2023-05-29T06:53:53;0.80;;;0.80;;
10096;SDS011;5087;42.662;23.466;2023-05-29T06:56:21;0.60;;;0.60;;
10096;SDS011;5087;42.662;23.466;2023-05-29T06:58:49;0.80;;;0.80;;
10096;SDS011;5087;42.662;23.466;2023-05-29T07:01:17;1.00;;;1.00;;
10096;SDS011;5087;42.662;23.466;2023-05-29T07:03:52;1.10;;;1.10;;
10096;SDS011;5087;42.662;23.466;2023-05-29T07:06:20;0.70;;;0.70;;
10096;SDS011;5087;42.662;23.466;2023-05-29T07:08:48;0.60;;;0.60;;
10096;SDS011;5087;42.662;23.466;2023-05-29T07:11:16;0.60;;;0.60;;
10096;SDS011;5087;42.662;23.466;2023-05-29T07:13:44;0.50;;;0.50;;
10096;SDS011;5087;42.662;23.466;2023-05-29T07:16:17;0.50;;;0.50;;
10096;SDS011;5087;42.662;23.466;2023-05-29T07:18:45;0.40;;;0.40;;
10096;SDS011;5087;42.662;23.466;2023-05-29T07:21:12;0.40;;;0.40;;
10096;SDS011;5087;42.662;23.466;2023-05-29T07:23:43;0.43;;;0.43;;
10096;SDS011;5087;42.662;23.466;2023-05-29T07:26:11;0.50;;;0.50;;
10096;SDS011;5087;42.662;23.466;2023-05-29T07:28:39;0.50;;;0.50;;
10096;SDS011;5087;42.662;23.466;2023-05-29T07:31:07;0.50;;;0.50;;
10096;SDS011;5087;42.662;23.466;2023-05-29T07:33:36;0.50;;;0.50;;
10096;SDS011;5087;42.662;23.466;2023-05-29T07:36:06;0.50;;;0.50;;
10096;SDS011;5087;42.662;23.466;2023-05-29T07:38:34;0.50;;;0.50;;
10096;SDS011;5087;42.662;23.466;2023-05-29T07:41:02;0.40;;;0.40;;
10096;SDS011;5087;42.662;23.466;2023-05-29T07:43:35;0.40;;;0.40;;
10096;SDS011;5087;42.662;23.466;2023-05-29T07:46:05;0.50;;;0.50;;
10096;SDS011;5087;42.662;23.466;2023-05-29T07:48:38;0.40;;;0.40;;
10096;SDS011;5087;42.662;23.466;2023-05-29T07:51:07;0.50;;;0.50;;
10096;SDS011;5087;42.662;23.466;2023-05-29T07:53:36;0.50;;;0.50;;
10096;SDS011;5087;42.662;23.466;2023-05-29T07:56:07;0.50;;;0.50;;
10096;SDS011;5087;42.662;23.466;2023-05-29T07:58:34;0.70;;;0.70;;
10096;SDS011;5087;42.662;23.466;2023-05-29T08:01:02;0.50;;;0.50;;
10096;SDS011;5087;42.662;23.466;2023-05-29T08:03:31;0.70;;;0.70;;
10096;SDS011;5087;42.662;23.466;2023-05-29T08:06:20;0.40;;;0.40;;
10096;SDS011;5087;42.662;23.466;2023-05-29T08:08:48;0.50;;;0.50;;
10096;SDS011;5087;42.662;23.466;2023-05-29T08:11:17;0.40;;;0.40;;
10096;SDS011;5087;42.662;23.466;2023-05-29T08:13:45;0.43;;;0.43;;
10096;SDS011;5087;42.662;23.466;2023-05-29T08:16:15;0.50;;;0.50;;
10096;SDS011;5087;42.662;23.466;2023-05-29T08:18:42;0.50;;;0.50;;
10096;SDS011;5087;42.662;23.466;2023-05-29T08:21:09;0.50;;;0.50;;
10096;SDS011;5087;42.662;23.466;2023-05-29T08:23:38;0.50;;;0.50;;
10096;SDS011;5087;42.662;23.466;2023-05-29T08:26:06;0.47;;;0.47;;
10096;SDS011;5087;42.662;23.466;2023-05-29T08:28:33;0.53;;;0.53;;
10096;SDS011;5087;42.662;23.466;2023-05-29T08:31:01;0.40;;;0.40;;
10096;SDS011;5087;42.662;23.466;2023-05-29T08:33:28;0.40;;;0.40;;
10096;SDS011;5087;42.662;23.466;2023-05-29T08:35:56;0.30;;;0.30;;
10096;SDS011;5087;42.662;23.466;2023-05-29T08:38:24;0.33;;;0.33;;
10096;SDS011;5087;42.662;23.466;2023-05-29T08:40:53;0.30;;;0.30;;
10096;SDS011;5087;42.662;23.466;2023-05-29T08:43:23;0.30;;;0.30;;
10096;SDS011;5087;42.662;23.466;2023-05-29T08:45:52;0.30;;;0.30;;
10096;SDS011;5087;42.662;23.466;2023-05-29T08:48:22;0.40;;;0.40;;
10096;SDS011;5087;42.662;23.466;2023-05-29T08:50:50;0.40;;;0.40;;
10096;SDS011;5087;42.662;23.466;2023-05-29T08:53:20;0.40;;;0.40;;
10096;SDS011;5087;42.662;23.466;2023-05-29T08:55:48;0.40;;;0.40;;
10096;SDS011;5087;42.662;23.466;2023-05-29T08:58:19;0.67;;;0.67;;
10096;SDS011;5087;42.662;23.466;2023-05-29T09:00:47;0.37;;;0.37;;
10096;SDS011;5087;42.662;23.466;2023-05-29T09:03:15;0.40;;;0.40;;
10096;SDS011;5087;42.662;23.466;2023-05-29T09:05:43;0.27;;;0.27;;
10096;SDS011;5087;42.662;23.466;2023-05-29T09:08:11;0.30;;;0.30;;
10096;SDS011;5087;42.662;23.466;2023-05-29T09:10:42;0.30;;;0.30;;
10096;SDS011;5087;42.662;23.466;2023-05-29T09:13:11;0.40;;;0.40;;
10096;SDS011;5087;42.662;23.466;2023-05-29T09:15:43;0.30;;;0.30;;
10096;SDS011;5087;42.662;23.466;2023-05-29T09:18:10;0.30;;;0.30;;
10096;SDS011;5087;42.662;23.466;2023-05-29T09:20:38;0.30;;;0.30;;
10096;SDS011;5087;42.662;23.466;2023-05-29T09:23:07;0.30;;;0.30;;
10096;SDS011;5087;42.662;23.466;2023-05-29T09:25:39;0.30;;;0.30;;
10096;SDS011;5087;42.662;23.466;2023-05-29T09:28:08;0.40;;;0.40;;
10096;SDS011;5087;42.662;23.466;2023-05-29T09:30:36;0.30;;;0.30;;
10096;SDS011;5087;42.662;23.466;2023-05-29T09:33:07;0.50;;;0.50;;
10096;SDS011;5087;42.662;23.466;2023-05-29T09:35:35;0.30;;;0.30;;
10096;SDS011;5087;42.662;23.466;2023-05-29T09:38:03;0.30;;;0.30;;
10096;SDS011;5087;42.662;23.466;2023-05-29T09:40:31;0.30;;;0.30;;
10096;SDS011;5087;42.662;23.466;2023-05-29T09:43:03;0.30;;;0.30;;
10096;SDS011;5087;42.662;23.466;2023-05-29T09:45:33;0.30;;;0.30;;
10096;SDS011;5087;42.662;23.466;2023-05-29T09:48:03;0.30;;;0.30;;
10096;SDS011;5087;42.662;23.466;2023-05-29T09:50:34;0.40;;;0.40;;
10096;SDS011;5087;42.662;23.466;2023-05-29T09:53:02;0.20;;;0.20;;
10096;SDS011;5087;42.662;23.466;2023-05-29T09:55:30;0.67;;;0.67;;
10096;SDS011;5087;42.662;23.466;2023-05-29T09:57:59;0.20;;;0.20;;
10096;SDS011;5087;42.662;23.466;2023-05-29T10:00:27;0.27;;;0.27;;
10096;SDS011;5087;42.662;23.466;2023-05-29T10:02:56;0.20;;;0.20;;
10096;SDS011;5087;42.662;23.466;2023-05-29T10:05:25;0.20;;;0.20;;
10096;SDS011;5087;42.662;23.466;2023-05-29T10:07:54;0.20;;;0.20;;
10096;SDS011;5087;42.662;23.466;2023-05-29T10:10:22;0.20;;;0.20;;
10096;SDS011;5087;42.662;23.466;2023-05-29T10:12:53;0.20;;;0.20;;
10096;SDS011;5087;42.662;23.466;2023-05-29T10:15:22;0.20;;;0.20;;
10096;SDS011;5087;42.662;23.466;2023-05-29T10:17:57;0.30;;;0.30;;
10096;SDS011;5087;42.662;23.466;2023-05-29T10:20:28;0.30;;;0.30;;
10096;SDS011;5087;42.662;23.466;2023-05-29T10:22:56;0.40;;;0.40;;
10096;SDS011;5087;42.662;23.466;2023-05-29T10:25:26;0.33;;;0.33;;
10096;SDS011;5087;42.662;23.466;2023-05-29T10:27:56;0.20;;;0.20;;
10096;SDS011;5087;42.662;23.466;2023-05-29T10:30:27;0.60;;;0.60;;
10096;SDS011;5087;42.662;23.466;2023-05-29T10:33:09;0.30;;;0.30;;
10096;SDS011;5087;42.662;23.466;2023-05-29T10:35:51;0.30;;;0.30;;
10096;SDS011;5087;42.662;23.466;2023-05-29T10:38:24;0.20;;;0.20;;
10096;SDS011;5087;42.662;23.466;2023-05-29T10:40:52;0.20;;;0.20;;
10096;SDS011;5087;42.662;23.466;2023-05-29T10:43:29;0.20;;;0.20;;
10096;SDS011;5087;42.662;23.466;2023-05-29T10:45:58;0.20;;;0.20;;
10096;SDS011;5087;42.662;23.466;2023-05-29T10:48:36;0.17;;;0.17;;
10096;SDS011;5087;42.662;23.466;2023-05-29T10:51:06;0.20;;;0.20;;
10096;SDS011;5087;42.662;23.466;2023-05-29T10:53:34;0.20;;;0.20;;
10096;SDS011;5087;42.662;23.466;2023-05-29T10:56:09;0.20;;;0.20;;
10096;SDS011;5087;42.662;23.466;2023-05-29T10:58:42;0.20;;;0.20;;
10096;SDS011;5087;42.662;23.466;2023-05-29T11:01:09;0.20;;;0.20;;
10096;SDS011;5087;42.662;23.466;2023-05-29T11:03:36;0.30;;;0.30;;
10096;SDS011;5087;42.662;23.466;2023-05-29T11:06:06;0.20;;;0.20;;
10096;SDS011;5087;42.662;23.466;2023-05-29T11:08:41;0.20;;;0.20;;
10096;SDS011;5087;42.662;23.466;2023-05-29T11:11:11;0.10;;;0.10;;
10096;SDS011;5087;42.662;23.466;2023-05-29T11:13:42;0.20;;;0.20;;
10096;SDS011;5087;42.662;23.466;2023-05-29T11:16:19;0.20;;;0.20;;
10096;SDS011;5087;42.662;23.466;2023-05-29T11:19:03;0.20;;;0.20;;
10096;SDS011;5087;42.662;23.466;2023-05-29T11:21:33;0.10;;;0.10;;
10096;SDS011;5087;42.662;23.466;2023-05-29T11:24:05;0.20;;;0.20;;
10096;SDS011;5087;42.662;23.466;2023-05-29T11:26:33;0.10;;;0.10;;
10096;SDS011;5087;42.662;23.466;2023-05-29T11:29:03;0.20;;;0.20;;
10096;SDS011;5087;42.662;23.466;2023-05-29T11:31:32;0.40;;;0.40;;
10096;SDS011;5087;42.662;23.466;2023-05-29T11:34:02;0.80;;;0.80;;
10096;SDS011;5087;42.662;23.466;2023-05-29T11:36:33;0.70;;;0.70;;
10096;SDS011;5087;42.662;23.466;2023-05-29T11:39:00;0.60;;;0.60;;
10096;SDS011;5087;42.662;23.466;2023-05-29T11:41:29;0.80;;;0.80;;
10096;SDS011;5087;42.662;23.466;2023-05-29T11:43:56;0.50;;;0.50;;
10096;SDS011;5087;42.662;23.466;2023-05-29T11:46:24;0.80;;;0.80;;
10096;SDS011;5087;42.662;23.466;2023-05-29T11:48:56;0.57;;;0.57;;
10096;SDS011;5087;42.662;23.466;2023-05-29T11:51:24;0.70;;;0.70;;
10096;SDS011;5087;42.662;23.466;2023-05-29T11:53:53;1.27;;;1.27;;
10096;SDS011;5087;42.662;23.466;2023-05-29T11:56:24;0.80;;;0.80;;
10096;SDS011;5087;42.662;23.466;2023-05-29T11:58:52;0.50;;;0.50;;
10096;SDS011;5087;42.662;23.466;2023-05-29T12:01:22;0.40;;;0.40;;
10096;SDS011;5087;42.662;23.466;2023-05-29T12:03:51;0.43;;;0.43;;
10096;SDS011;5087;42.662;23.466;2023-05-29T12:06:30;0.40;;;0.40;;
10096;SDS011;5087;42.662;23.466;2023-05-29T12:09:00;0.40;;;0.40;;
10096;SDS011;5087;42.662;23.466;2023-05-29T12:11:29;0.40;;;0.40;;
10096;SDS011;5087;42.662;23.466;2023-05-29T12:13:57;0.50;;;0.50;;
10096;SDS011;5087;42.662;23.466;2023-05-29T12:16:25;0.40;;;0.40;;
10096;SDS011;5087;42.662;23.466;2023-05-29T12:18:54;0.50;;;0.50;;
10096;SDS011;5087;42.662;23.466;2023-05-29T12:21:22;0.43;;;0.43;;
10096;SDS011;5087;42.662;23.466;2023-05-29T12:23:51;0.60;;;0.60;;
10096;SDS011;5087;42.662;23.466;2023-05-29T12:26:22;0.40;;;0.40;;
10096;SDS011;5087;42.662;23.466;2023-05-29T12:28:51;0.40;;;0.40;;
10096;SDS011;5087;42.662;23.466;2023-05-29T12:31:29;0.40;;;0.40;;
10096;SDS011;5087;42.662;23.466;2023-05-29T12:33:59;0.40;;;0.40;;
10096;SDS011;5087;42.662;23.466;2023-05-29T12:36:27;0.37;;;0.37;;
10096;SDS011;5087;42.662;23.466;2023-05-29T12:38:54;0.40;;;0.40;;
10096;SDS011;5087;42.662;23.466;2023-05-29T12:41:25;0.40;;;0.40;;
10096;SDS011;5087;42.662;23.466;2023-05-29T12:43:54;0.40;;;0.40;;
10096;SDS011;5087;42.662;23.466;2023-05-29T12:46:22;0.60;;;0.60;;
10096;SDS011;5087;42.662;23.466;2023-05-29T12:48:52;0.33;;;0.33;;
10096;SDS011;5087;42.662;23.466;2023-05-29T12:51:23;0.30;;;0.30;;
10096;SDS011;5087;42.662;23.466;2023-05-29T12:53:50;0.30;;;0.30;;
10096;SDS011;5087;42.662;23.466;2023-05-29T12:56:20;0.30;;;0.30;;
10096;SDS011;5087;42.662;23.466;2023-05-29T12:58:51;0.30;;;0.30;;
10096;SDS011;5087;42.662;23.466;2023-05-29T13:01:18;0.30;;;0.30;;
10096;SDS011;5087;42.662;23.466;2023-05-29T13:03:46;0.40;;;0.40;;
10096;SDS011;5087;42.662;23.466;2023-05-29T13:06:14;0.40;;;0.40;;
10096;SDS011;5087;42.662;23.466;2023-05-29T13:08:42;0.40;;;0.40;;
10096;SDS011;5087;42.662;23.466;2023-05-29T13:11:09;0.40;;;0.40;;
10096;SDS011;5087;42.662;23.466;2023-05-29T13:13:36;0.30;;;0.30;;
10096;SDS011;5087;42.662;23.466;2023-05-29T13:16:05;0.37;;;0.37;;
10096;SDS011;5087;42.662;23.466;2023-05-29T13:18:33;0.40;;;0.40;;
10096;SDS011;5087;42.662;23.466;2023-05-29T13:21:00;0.40;;;0.40;;
10096;SDS011;5087;42.662;23.466;2023-05-29T13:23:28;0.40;;;0.40;;
10096;SDS011;5087;42.662;23.466;2023-05-29T13:25:55;0.40;;;0.40;;
10096;SDS011;5087;42.662;23.466;2023-05-29T13:28:22;0.40;;;0.40;;
10096;SDS011;5087;42.662;23.466;2023-05-29T13:30:50;0.70;;;0.70;;
10096;SDS011;5087;42.662;23.466;2023-05-29T13:33:18;0.47;;;0.47;;
10096;SDS011;5087;42.662;23.466;2023-05-29T13:35:46;3.60;;;1.03;;
10096;SDS011;5087;42.662;23.466;2023-05-29T13:38:16;0.50;;;0.50;;
10096;SDS011;5087;42.662;23.466;2023-05-29T13:40:44;0.50;;;0.50;;
10096;SDS011;5087;42.662;23.466;2023-05-29T13:43:11;0.47;;;0.47;;
10096;SDS011;5087;42.662;23.466;2023-05-29T13:45:41;0.50;;;0.50;;
10096;SDS011;5087;42.662;23.466;2023-05-29T13:48:08;0.40;;;0.40;;
10096;SDS011;5087;42.662;23.466;2023-05-29T13:50:37;1.27;;;1.27;;
10096;SDS011;5087;42.662;23.466;2023-05-29T13:53:04;0.40;;;0.40;;
10096;SDS011;5087;42.662;23.466;2023-05-29T13:55:31;0.47;;;0.47;;
10096;SDS011;5087;42.662;23.466;2023-05-29T13:57:58;0.60;;;0.60;;
10096;SDS011;5087;42.662;23.466;2023-05-29T14:00:26;0.40;;;0.40;;
10096;SDS011;5087;42.662;23.466;2023-05-29T14:02:55;0.50;;;0.50;;
10096;SDS011;5087;42.662;23.466;2023-05-29T14:05:23;0.90;;;0.90;;
10096;SDS011;5087;42.662;23.466;2023-05-29T14:07:51;0.60;;;0.60;;
10096;SDS011;5087;42.662;23.466;2023-05-29T14:10:19;0.70;;;0.70;;
10096;SDS011;5087;42.662;23.466;2023-05-29T14:12:46;0.50;;;0.50;;
10096;SDS011;5087;42.662;23.466;2023-05-29T14:15:16;0.60;;;0.60;;
10096;SDS011;5087;42.662;23.466;2023-05-29T14:17:44;0.40;;;0.40;;
10096;SDS011;5087;42.662;23.466;2023-05-29T14:20:11;0.60;;;0.60;;
10096;SDS011;5087;42.662;23.466;2023-05-29T14:22:38;0.50;;;0.50;;
10096;SDS011;5087;42.662;23.466;2023-05-29T14:25:07;0.50;;;0.50;;
10096;SDS011;5087;42.662;23.466;2023-05-29T14:27:35;0.50;;;0.50;;
10096;SDS011;5087;42.662;23.466;2023-05-29T14:30:03;0.50;;;0.50;;
10096;SDS011;5087;42.662;23.466;2023-05-29T14:32:31;0.57;;;0.57;;
10096;SDS011;5087;42.662;23.466;2023-05-29T14:34:58;0.53;;;0.53;;
10096;SDS011;5087;42.662;23.466;2023-05-29T14:37:26;0.60;;;0.60;;
10096;SDS011;5087;42.662;23.466;2023-05-29T14:39:53;0.50;;;0.50;;
10096;SDS011;5087;42.662;23.466;2023-05-29T14:42:22;0.60;;;0.60;;
10096;SDS011;5087;42.662;23.466;2023-05-29T14:44:49;0.50;;;0.50;;
10096;SDS011;5087;42.662;23.466;2023-05-29T14:47:16;0.63;;;0.63;;
10096;SDS011;5087;42.662;23.466;2023-05-29T14:49:44;0.63;;;0.63;;
10096;SDS011;5087;42.662;23.466;2023-05-29T14:52:12;0.53;;;0.53;;
10096;SDS011;5087;42.662;23.466;2023-05-29T14:54:39;0.60;;;0.60;;
10096;SDS011;5087;42.662;23.466;2023-05-29T14:57:07;0.60;;;0.60;;
10096;SDS011;5087;42.662;23.466;2023-05-29T14:59:36;0.60;;;0.60;;